sensor_id;sensor_type;location;lat;lon;timestamp;P1;durP1;ratioP1;P2;durP2;ratioP2
7116;SDS011;3600;48.568;7.870;2023-04-12T00:00:57;3.63;;;1.50;;
7116;SDS011;3600;48.568;7.870;2023-04-12T00:03:23;2.35;;;1.40;;
7116;SDS011;3600;48.568;7.870;2023-04-12T00:05:51;2.58;;;1.65;;
7116;SDS011;3600;48.568;7.870;2023-04-12T00:08:21;3.17;;;1.63;;
7116;SDS011;3600;48.568;7.870;2023-04-12T00:10:51;2.05;;;1.27;;
7116;SDS011;3600;48.568;7.870;2023-04-12T00:13:18;3.42;;;1.52;;
7116;SDS011;3600;48.568;7.870;2023-04-12T00:15:45;2.58;;;1.55;;
7116;SDS011;3600;48.568;7.870;2023-04-12T00:18:12;4.15;;;1.63;;
7116;SDS011;3600;48.568;7.870;2023-04-12T00:20:38;2.83;;;1.90;;
7116;SDS011;3600;48.568;7.870;2023-04-12T00:23:06;1.77;;;1.58;;
7116;SDS011;3600;48.568;7.870;2023-04-12T00:25:35;4.60;;;1.58;;
7116;SDS011;3600;48.568;7.870;2023-04-12T00:28:04;2.28;;;1.83;;
7116;SDS011;3600;48.568;7.870;2023-04-12T00:30:31;3.50;;;1.50;;
7116;SDS011;3600;48.568;7.870;2023-04-12T00:32:58;3.83;;;1.40;;
7116;SDS011;3600;48.568;7.870;2023-04-12T00:35:25;2.25;;;1.98;;
7116;SDS011;3600;48.568;7.870;2023-04-12T00:37:52;3.60;;;2.10;;
7116;SDS011;3600;48.568;7.870;2023-04-12T00:40:19;3.90;;;1.80;;
7116;SDS011;3600;48.568;7.870;2023-04-12T00:42:46;2.65;;;1.60;;
7116;SDS011;3600;48.568;7.870;2023-04-12T00:45:13;2.50;;;1.40;;
7116;SDS011;3600;48.568;7.870;2023-04-12T00:47:40;2.83;;;1.73;;
7116;SDS011;3600;48.568;7.870;2023-04-12T00:50:08;2.90;;;1.70;;
7116;SDS011;3600;48.568;7.870;2023-04-12T00:52:36;3.42;;;2.00;;
7116;SDS011;3600;48.568;7.870;2023-04-12T00:55:04;2.72;;;1.45;;
7116;SDS011;3600;48.568;7.870;2023-04-12T00:57:33;3.63;;;1.77;;
7116;SDS011;3600;48.568;7.870;2023-04-12T01:00:05;4.13;;;1.60;;
7116;SDS011;3600;48.568;7.870;2023-04-12T01:02:41;5.13;;;2.00;;
7116;SDS011;3600;48.568;7.870;2023-04-12T01:05:13;3.17;;;1.80;;
7116;SDS011;3600;48.568;7.870;2023-04-12T01:10:26;3.15;;;2.00;;
7116;SDS011;3600;48.568;7.870;2023-04-12T01:13:04;4.15;;;1.60;;
7116;SDS011;3600;48.568;7.870;2023-04-12T01:15:52;4.78;;;1.95;;
7116;SDS011;3600;48.568;7.870;2023-04-12T01:18:26;2.05;;;1.70;;
7116;SDS011;3600;48.568;7.870;2023-04-12T01:20:57;5.97;;;1.83;;
7116;SDS011;3600;48.568;7.870;2023-04-12T01:26:30;4.22;;;1.67;;
7116;SDS011;3600;48.568;7.870;2023-04-12T01:29:03;2.75;;;1.63;;
7116;SDS011;3600;48.568;7.870;2023-04-12T01:31:35;1.73;;;1.25;;
7116;SDS011;3600;48.568;7.870;2023-04-12T01:34:04;2.65;;;1.17;;
7116;SDS011;3600;48.568;7.870;2023-04-12T01:36:34;3.25;;;2.03;;
7116;SDS011;3600;48.568;7.870;2023-04-12T01:39:03;4.90;;;1.75;;
7116;SDS011;3600;48.568;7.870;2023-04-12T01:41:32;3.70;;;1.85;;
7116;SDS011;3600;48.568;7.870;2023-04-12T01:44:03;3.17;;;1.75;;
7116;SDS011;3600;48.568;7.870;2023-04-12T01:46:30;2.72;;;1.95;;
7116;SDS011;3600;48.568;7.870;2023-04-12T01:48:57;3.20;;;1.65;;
7116;SDS011;3600;48.568;7.870;2023-04-12T01:51:33;1.92;;;1.45;;
7116;SDS011;3600;48.568;7.870;2023-04-12T01:54:13;4.50;;;1.88;;
7116;SDS011;3600;48.568;7.870;2023-04-12T01:56:46;3.15;;;2.03;;
7116;SDS011;3600;48.568;7.870;2023-04-12T01:59:18;4.00;;;2.15;;
7116;SDS011;3600;48.568;7.870;2023-04-12T02:01:46;3.45;;;2.00;;
7116;SDS011;3600;48.568;7.870;2023-04-12T02:04:13;3.67;;;1.67;;
7116;SDS011;3600;48.568;7.870;2023-04-12T02:06:45;4.55;;;1.73;;
7116;SDS011;3600;48.568;7.870;2023-04-12T02:09:13;2.65;;;1.70;;
7116;SDS011;3600;48.568;7.870;2023-04-12T02:11:40;5.75;;;1.83;;
7116;SDS011;3600;48.568;7.870;2023-04-12T02:14:11;4.60;;;2.00;;
7116;SDS011;3600;48.568;7.870;2023-04-12T02:16:37;4.22;;;1.63;;
7116;SDS011;3600;48.568;7.870;2023-04-12T02:19:07;3.97;;;1.88;;
7116;SDS011;3600;48.568;7.870;2023-04-12T02:21:44;4.25;;;1.77;;
7116;SDS011;3600;48.568;7.870;2023-04-12T02:24:11;3.40;;;1.73;;
7116;SDS011;3600;48.568;7.870;2023-04-12T02:26:38;3.42;;;1.50;;
7116;SDS011;3600;48.568;7.870;2023-04-12T02:29:08;2.22;;;1.52;;
7116;SDS011;3600;48.568;7.870;2023-04-12T02:31:35;2.35;;;1.73;;
7116;SDS011;3600;48.568;7.870;2023-04-12T02:34:04;2.03;;;1.83;;
7116;SDS011;3600;48.568;7.870;2023-04-12T02:36:31;2.50;;;1.92;;
7116;SDS011;3600;48.568;7.870;2023-04-12T02:38:57;2.65;;;1.83;;
7116;SDS011;3600;48.568;7.870;2023-04-12T02:41:24;3.67;;;1.60;;
7116;SDS011;3600;48.568;7.870;2023-04-12T02:43:51;3.67;;;2.33;;
7116;SDS011;3600;48.568;7.870;2023-04-12T02:46:19;5.00;;;2.17;;
7116;SDS011;3600;48.568;7.870;2023-04-12T02:48:48;2.75;;;2.05;;
7116;SDS011;3600;48.568;7.870;2023-04-12T02:51:15;3.60;;;2.05;;
7116;SDS011;3600;48.568;7.870;2023-04-12T02:53:42;2.17;;;1.80;;
7116;SDS011;3600;48.568;7.870;2023-04-12T02:56:09;4.90;;;2.17;;
7116;SDS011;3600;48.568;7.870;2023-04-12T02:58:36;2.38;;;1.85;;
7116;SDS011;3600;48.568;7.870;2023-04-12T03:01:03;3.20;;;1.77;;
7116;SDS011;3600;48.568;7.870;2023-04-12T03:03:33;3.05;;;2.00;;
7116;SDS011;3600;48.568;7.870;2023-04-12T03:06:01;2.47;;;1.77;;
7116;SDS011;3600;48.568;7.870;2023-04-12T03:08:28;4.25;;;1.63;;
7116;SDS011;3600;48.568;7.870;2023-04-12T03:10:55;1.73;;;1.48;;
7116;SDS011;3600;48.568;7.870;2023-04-12T03:13:22;1.80;;;1.33;;
7116;SDS011;3600;48.568;7.870;2023-04-12T03:15:53;3.38;;;1.77;;
7116;SDS011;3600;48.568;7.870;2023-04-12T03:18:24;2.17;;;1.95;;
7116;SDS011;3600;48.568;7.870;2023-04-12T03:20:51;3.40;;;1.70;;
7116;SDS011;3600;48.568;7.870;2023-04-12T03:23:18;3.42;;;1.45;;
7116;SDS011;3600;48.568;7.870;2023-04-12T03:25:45;2.35;;;1.17;;
7116;SDS011;3600;48.568;7.870;2023-04-12T03:28:12;3.70;;;2.03;;
7116;SDS011;3600;48.568;7.870;2023-04-12T03:30:39;3.55;;;1.50;;
7116;SDS011;3600;48.568;7.870;2023-04-12T03:33:06;2.75;;;1.75;;
7116;SDS011;3600;48.568;7.870;2023-04-12T03:35:33;2.92;;;1.80;;
7116;SDS011;3600;48.568;7.870;2023-04-12T03:37:59;2.15;;;1.23;;
7116;SDS011;3600;48.568;7.870;2023-04-12T03:40:26;1.70;;;1.23;;
7116;SDS011;3600;48.568;7.870;2023-04-12T03:42:53;2.85;;;1.60;;
7116;SDS011;3600;48.568;7.870;2023-04-12T03:45:20;3.17;;;1.80;;
7116;SDS011;3600;48.568;7.870;2023-04-12T03:47:46;2.22;;;1.88;;
7116;SDS011;3600;48.568;7.870;2023-04-12T03:50:13;3.40;;;1.65;;
7116;SDS011;3600;48.568;7.870;2023-04-12T03:52:40;2.63;;;1.67;;
7116;SDS011;3600;48.568;7.870;2023-04-12T03:55:07;3.22;;;1.60;;
7116;SDS011;3600;48.568;7.870;2023-04-12T03:57:34;2.70;;;2.38;;
7116;SDS011;3600;48.568;7.870;2023-04-12T04:00:01;2.28;;;1.80;;
7116;SDS011;3600;48.568;7.870;2023-04-12T04:02:29;2.47;;;1.77;;
7116;SDS011;3600;48.568;7.870;2023-04-12T04:04:57;2.65;;;1.48;;
7116;SDS011;3600;48.568;7.870;2023-04-12T04:07:24;2.58;;;1.70;;
7116;SDS011;3600;48.568;7.870;2023-04-12T04:09:52;2.20;;;1.40;;
7116;SDS011;3600;48.568;7.870;2023-04-12T04:12:19;1.83;;;1.55;;
7116;SDS011;3600;48.568;7.870;2023-04-12T04:14:46;2.50;;;1.65;;
7116;SDS011;3600;48.568;7.870;2023-04-12T04:17:13;3.25;;;1.50;;
7116;SDS011;3600;48.568;7.870;2023-04-12T04:19:40;2.75;;;1.75;;
7116;SDS011;3600;48.568;7.870;2023-04-12T04:22:06;2.92;;;1.98;;
7116;SDS011;3600;48.568;7.870;2023-04-12T04:24:35;5.50;;;1.45;;
7116;SDS011;3600;48.568;7.870;2023-04-12T04:27:04;1.30;;;1.10;;
7116;SDS011;3600;48.568;7.870;2023-04-12T04:29:31;1.42;;;1.13;;
7116;SDS011;3600;48.568;7.870;2023-04-12T04:31:58;3.50;;;1.20;;
7116;SDS011;3600;48.568;7.870;2023-04-12T04:34:25;2.75;;;1.30;;
7116;SDS011;3600;48.568;7.870;2023-04-12T04:36:52;3.60;;;1.65;;
7116;SDS011;3600;48.568;7.870;2023-04-12T04:39:19;4.07;;;1.63;;
7116;SDS011;3600;48.568;7.870;2023-04-12T04:41:46;1.45;;;1.35;;
7116;SDS011;3600;48.568;7.870;2023-04-12T04:44:19;2.05;;;1.67;;
7116;SDS011;3600;48.568;7.870;2023-04-12T04:46:46;5.57;;;3.10;;
7116;SDS011;3600;48.568;7.870;2023-04-12T04:49:14;3.10;;;2.58;;
7116;SDS011;3600;48.568;7.870;2023-04-12T04:51:41;3.95;;;3.65;;
7116;SDS011;3600;48.568;7.870;2023-04-12T04:54:08;3.53;;;3.15;;
7116;SDS011;3600;48.568;7.870;2023-04-12T04:56:34;5.32;;;4.82;;
7116;SDS011;3600;48.568;7.870;2023-04-12T04:59:01;4.65;;;4.35;;
7116;SDS011;3600;48.568;7.870;2023-04-12T05:01:28;4.15;;;3.75;;
7116;SDS011;3600;48.568;7.870;2023-04-12T05:03:55;5.10;;;4.03;;
7116;SDS011;3600;48.568;7.870;2023-04-12T05:06:22;5.93;;;3.78;;
7116;SDS011;3600;48.568;7.870;2023-04-12T05:08:49;3.63;;;3.33;;
7116;SDS011;3600;48.568;7.870;2023-04-12T05:11:18;4.60;;;3.10;;
7116;SDS011;3600;48.568;7.870;2023-04-12T05:13:45;2.80;;;2.17;;
7116;SDS011;3600;48.568;7.870;2023-04-12T05:16:11;2.88;;;1.70;;
7116;SDS011;3600;48.568;7.870;2023-04-12T05:18:39;2.20;;;2.00;;
7116;SDS011;3600;48.568;7.870;2023-04-12T05:21:06;3.35;;;1.92;;
7116;SDS011;3600;48.568;7.870;2023-04-12T05:23:36;2.13;;;1.92;;
7116;SDS011;3600;48.568;7.870;2023-04-12T05:26:07;2.95;;;2.58;;
7116;SDS011;3600;48.568;7.870;2023-04-12T05:28:33;3.20;;;2.90;;
7116;SDS011;3600;48.568;7.870;2023-04-12T05:31:00;3.47;;;3.15;;
7116;SDS011;3600;48.568;7.870;2023-04-12T05:33:27;5.10;;;3.55;;
7116;SDS011;3600;48.568;7.870;2023-04-12T05:35:56;7.25;;;5.10;;
7116;SDS011;3600;48.568;7.870;2023-04-12T05:38:23;6.60;;;4.18;;
7116;SDS011;3600;48.568;7.870;2023-04-12T05:40:50;6.72;;;6.07;;
7116;SDS011;3600;48.568;7.870;2023-04-12T05:43:17;6.68;;;6.07;;
7116;SDS011;3600;48.568;7.870;2023-04-12T05:45:43;7.25;;;6.25;;
7116;SDS011;3600;48.568;7.870;2023-04-12T05:48:10;5.03;;;3.70;;
7116;SDS011;3600;48.568;7.870;2023-04-12T05:50:37;4.03;;;3.40;;
7116;SDS011;3600;48.568;7.870;2023-04-12T05:53:04;4.93;;;4.10;;
7116;SDS011;3600;48.568;7.870;2023-04-12T05:55:31;5.25;;;4.75;;
7116;SDS011;3600;48.568;7.870;2023-04-12T05:57:59;4.30;;;4.00;;
7116;SDS011;3600;48.568;7.870;2023-04-12T06:00:26;4.82;;;3.50;;
7116;SDS011;3600;48.568;7.870;2023-04-12T06:02:53;3.53;;;3.22;;
7116;SDS011;3600;48.568;7.870;2023-04-12T06:05:20;3.58;;;3.03;;
7116;SDS011;3600;48.568;7.870;2023-04-12T06:07:48;3.72;;;2.58;;
7116;SDS011;3600;48.568;7.870;2023-04-12T06:13:44;6.38;;;3.00;;
7116;SDS011;3600;48.568;7.870;2023-04-12T06:16:11;7.18;;;3.30;;
7116;SDS011;3600;48.568;7.870;2023-04-12T06:18:38;5.03;;;3.08;;
7116;SDS011;3600;48.568;7.870;2023-04-12T06:21:05;4.55;;;3.15;;
7116;SDS011;3600;48.568;7.870;2023-04-12T06:23:32;3.28;;;2.33;;
7116;SDS011;3600;48.568;7.870;2023-04-12T06:25:59;2.92;;;2.25;;
7116;SDS011;3600;48.568;7.870;2023-04-12T06:28:25;3.50;;;2.60;;
7116;SDS011;3600;48.568;7.870;2023-04-12T06:30:53;2.33;;;2.17;;
7116;SDS011;3600;48.568;7.870;2023-04-12T06:33:20;2.40;;;2.22;;
7116;SDS011;3600;48.568;7.870;2023-04-12T06:35:49;2.58;;;2.38;;
7116;SDS011;3600;48.568;7.870;2023-04-12T06:38:17;3.15;;;1.90;;
7116;SDS011;3600;48.568;7.870;2023-04-12T06:40:44;3.88;;;1.90;;
7116;SDS011;3600;48.568;7.870;2023-04-12T06:43:11;1.30;;;1.30;;
7116;SDS011;3600;48.568;7.870;2023-04-12T06:45:38;2.05;;;1.77;;
7116;SDS011;3600;48.568;7.870;2023-04-12T06:48:04;2.63;;;1.63;;
7116;SDS011;3600;48.568;7.870;2023-04-12T06:50:34;2.17;;;1.75;;
7116;SDS011;3600;48.568;7.870;2023-04-12T06:53:00;2.88;;;1.80;;
7116;SDS011;3600;48.568;7.870;2023-04-12T06:55:27;2.88;;;1.42;;
7116;SDS011;3600;48.568;7.870;2023-04-12T06:57:54;2.22;;;1.80;;
7116;SDS011;3600;48.568;7.870;2023-04-12T07:00:21;1.85;;;1.75;;
7116;SDS011;3600;48.568;7.870;2023-04-12T07:02:48;2.45;;;1.75;;
7116;SDS011;3600;48.568;7.870;2023-04-12T07:05:15;2.10;;;1.92;;
7116;SDS011;3600;48.568;7.870;2023-04-12T07:07:43;3.17;;;1.88;;
7116;SDS011;3600;48.568;7.870;2023-04-12T07:10:10;1.63;;;1.38;;
7116;SDS011;3600;48.568;7.870;2023-04-12T07:12:37;3.42;;;1.83;;
7116;SDS011;3600;48.568;7.870;2023-04-12T07:15:04;1.88;;;1.60;;
7116;SDS011;3600;48.568;7.870;2023-04-12T07:17:31;5.13;;;1.88;;
7116;SDS011;3600;48.568;7.870;2023-04-12T07:19:58;4.50;;;2.00;;
7116;SDS011;3600;48.568;7.870;2023-04-12T07:22:25;2.13;;;1.63;;
7116;SDS011;3600;48.568;7.870;2023-04-12T07:24:52;3.83;;;1.60;;
7116;SDS011;3600;48.568;7.870;2023-04-12T07:27:18;4.10;;;2.05;;
7116;SDS011;3600;48.568;7.870;2023-04-12T07:29:45;2.20;;;1.70;;
7116;SDS011;3600;48.568;7.870;2023-04-12T07:32:12;2.55;;;2.10;;
7116;SDS011;3600;48.568;7.870;2023-04-12T07:34:39;1.60;;;1.50;;
7116;SDS011;3600;48.568;7.870;2023-04-12T07:37:06;3.00;;;2.10;;
7116;SDS011;3600;48.568;7.870;2023-04-12T07:39:33;3.65;;;1.98;;
7116;SDS011;3600;48.568;7.870;2023-04-12T07:42:01;3.38;;;1.90;;
7116;SDS011;3600;48.568;7.870;2023-04-12T07:44:28;2.45;;;2.25;;
7116;SDS011;3600;48.568;7.870;2023-04-12T07:46:56;2.63;;;1.95;;
7116;SDS011;3600;48.568;7.870;2023-04-12T07:49:23;2.53;;;2.00;;
7116;SDS011;3600;48.568;7.870;2023-04-12T07:51:50;3.08;;;1.90;;
7116;SDS011;3600;48.568;7.870;2023-04-12T07:54:17;3.22;;;2.42;;
7116;SDS011;3600;48.568;7.870;2023-04-12T07:56:56;2.95;;;2.40;;
7116;SDS011;3600;48.568;7.870;2023-04-12T07:59:24;2.40;;;2.10;;
7116;SDS011;3600;48.568;7.870;2023-04-12T08:01:51;3.60;;;2.42;;
7116;SDS011;3600;48.568;7.870;2023-04-12T08:04:17;2.53;;;2.00;;
7116;SDS011;3600;48.568;7.870;2023-04-12T08:06:45;3.30;;;1.95;;
7116;SDS011;3600;48.568;7.870;2023-04-12T08:09:11;3.00;;;1.92;;
7116;SDS011;3600;48.568;7.870;2023-04-12T08:11:38;3.20;;;2.28;;
7116;SDS011;3600;48.568;7.870;2023-04-12T08:14:05;2.78;;;2.13;;
7116;SDS011;3600;48.568;7.870;2023-04-12T08:16:32;3.25;;;2.17;;
7116;SDS011;3600;48.568;7.870;2023-04-12T08:18:58;3.40;;;1.90;;
7116;SDS011;3600;48.568;7.870;2023-04-12T08:21:25;3.22;;;2.08;;
7116;SDS011;3600;48.568;7.870;2023-04-12T08:23:52;3.35;;;2.28;;
7116;SDS011;3600;48.568;7.870;2023-04-12T08:26:19;4.32;;;2.70;;
7116;SDS011;3600;48.568;7.870;2023-04-12T08:28:46;3.10;;;2.03;;
7116;SDS011;3600;48.568;7.870;2023-04-12T08:31:16;2.72;;;1.95;;
7116;SDS011;3600;48.568;7.870;2023-04-12T08:33:44;2.75;;;1.92;;
7116;SDS011;3600;48.568;7.870;2023-04-12T08:36:10;2.70;;;2.22;;
7116;SDS011;3600;48.568;7.870;2023-04-12T08:38:37;8.50;;;3.05;;
7116;SDS011;3600;48.568;7.870;2023-04-12T08:41:11;3.42;;;1.98;;
7116;SDS011;3600;48.568;7.870;2023-04-12T08:43:41;3.55;;;2.20;;
7116;SDS011;3600;48.568;7.870;2023-04-12T08:46:11;2.00;;;1.75;;
7116;SDS011;3600;48.568;7.870;2023-04-12T08:48:41;2.47;;;2.25;;
7116;SDS011;3600;48.568;7.870;2023-04-12T08:51:17;3.95;;;2.20;;
7116;SDS011;3600;48.568;7.870;2023-04-12T08:53:45;6.20;;;2.80;;
7116;SDS011;3600;48.568;7.870;2023-04-12T08:56:12;3.60;;;2.42;;
7116;SDS011;3600;48.568;7.870;2023-04-12T08:58:40;2.92;;;1.92;;
7116;SDS011;3600;48.568;7.870;2023-04-12T09:01:12;7.57;;;2.28;;
7116;SDS011;3600;48.568;7.870;2023-04-12T09:03:44;2.78;;;2.08;;
7116;SDS011;3600;48.568;7.870;2023-04-12T09:06:12;3.55;;;3.03;;
7116;SDS011;3600;48.568;7.870;2023-04-12T09:08:52;2.95;;;2.60;;
7116;SDS011;3600;48.568;7.870;2023-04-12T09:11:21;4.78;;;2.72;;
7116;SDS011;3600;48.568;7.870;2023-04-12T09:13:49;3.70;;;2.20;;
7116;SDS011;3600;48.568;7.870;2023-04-12T09:16:16;2.60;;;2.40;;
7116;SDS011;3600;48.568;7.870;2023-04-12T09:18:48;4.45;;;2.25;;
7116;SDS011;3600;48.568;7.870;2023-04-12T09:21:16;2.63;;;2.38;;
7116;SDS011;3600;48.568;7.870;2023-04-12T09:23:43;5.22;;;2.38;;
7116;SDS011;3600;48.568;7.870;2023-04-12T09:26:26;4.32;;;2.47;;
7116;SDS011;3600;48.568;7.870;2023-04-12T09:28:54;4.10;;;2.20;;
7116;SDS011;3600;48.568;7.870;2023-04-12T09:31:21;3.75;;;2.20;;
7116;SDS011;3600;48.568;7.870;2023-04-12T09:33:48;6.50;;;2.25;;
7116;SDS011;3600;48.568;7.870;2023-04-12T09:36:14;4.13;;;2.05;;
7116;SDS011;3600;48.568;7.870;2023-04-12T09:39:04;5.43;;;1.98;;
7116;SDS011;3600;48.568;7.870;2023-04-12T09:41:31;2.00;;;1.85;;
7116;SDS011;3600;48.568;7.870;2023-04-12T09:43:58;4.05;;;2.13;;
7116;SDS011;3600;48.568;7.870;2023-04-12T09:46:26;2.58;;;2.00;;
7116;SDS011;3600;48.568;7.870;2023-04-12T09:48:54;2.65;;;1.65;;
7116;SDS011;3600;48.568;7.870;2023-04-12T09:51:27;3.70;;;1.98;;
7116;SDS011;3600;48.568;7.870;2023-04-12T09:53:57;1.95;;;1.75;;
7116;SDS011;3600;48.568;7.870;2023-04-12T09:56:29;1.88;;;1.45;;
7116;SDS011;3600;48.568;7.870;2023-04-12T09:59:01;4.32;;;1.80;;
7116;SDS011;3600;48.568;7.870;2023-04-12T10:01:38;3.65;;;1.95;;
7116;SDS011;3600;48.568;7.870;2023-04-12T10:04:06;4.25;;;2.15;;
7116;SDS011;3600;48.568;7.870;2023-04-12T10:06:35;2.40;;;2.10;;
7116;SDS011;3600;48.568;7.870;2023-04-12T10:09:02;4.07;;;1.77;;
7116;SDS011;3600;48.568;7.870;2023-04-12T10:11:30;4.38;;;2.33;;
7116;SDS011;3600;48.568;7.870;2023-04-12T10:14:00;2.35;;;1.70;;
7116;SDS011;3600;48.568;7.870;2023-04-12T10:16:29;1.60;;;1.50;;
7116;SDS011;3600;48.568;7.870;2023-04-12T10:18:59;4.00;;;1.75;;
7116;SDS011;3600;48.568;7.870;2023-04-12T10:21:27;3.95;;;2.00;;
7116;SDS011;3600;48.568;7.870;2023-04-12T10:23:54;2.80;;;2.00;;
7116;SDS011;3600;48.568;7.870;2023-04-12T10:26:21;2.00;;;1.73;;
7116;SDS011;3600;48.568;7.870;2023-04-12T10:31:58;3.58;;;1.90;;
7116;SDS011;3600;48.568;7.870;2023-04-12T10:34:43;3.80;;;1.90;;
7116;SDS011;3600;48.568;7.870;2023-04-12T10:37:15;1.77;;;1.67;;
7116;SDS011;3600;48.568;7.870;2023-04-12T10:39:42;3.33;;;2.15;;
7116;SDS011;3600;48.568;7.870;2023-04-12T10:42:20;2.35;;;1.65;;
7116;SDS011;3600;48.568;7.870;2023-04-12T10:44:49;3.70;;;2.08;;
7116;SDS011;3600;48.568;7.870;2023-04-12T10:55:46;1.88;;;1.77;;
7116;SDS011;3600;48.568;7.870;2023-04-12T11:01:11;4.07;;;1.90;;
7116;SDS011;3600;48.568;7.870;2023-04-12T11:19:33;3.50;;;1.90;;
7116;SDS011;3600;48.568;7.870;2023-04-12T11:22:03;2.88;;;1.88;;
7116;SDS011;3600;48.568;7.870;2023-04-12T11:24:31;4.00;;;2.08;;
7116;SDS011;3600;48.568;7.870;2023-04-12T11:26:58;5.85;;;3.22;;
7116;SDS011;3600;48.568;7.870;2023-04-12T11:29:26;5.63;;;3.40;;
7116;SDS011;3600;48.568;7.870;2023-04-12T11:31:53;3.80;;;1.90;;
7116;SDS011;3600;48.568;7.870;2023-04-12T11:34:21;4.05;;;1.90;;
7116;SDS011;3600;48.568;7.870;2023-04-12T11:36:51;2.72;;;1.88;;
7116;SDS011;3600;48.568;7.870;2023-04-12T11:39:19;2.72;;;1.85;;
7116;SDS011;3600;48.568;7.870;2023-04-12T11:41:46;3.03;;;1.80;;
7116;SDS011;3600;48.568;7.870;2023-04-12T11:44:14;2.08;;;1.67;;
7116;SDS011;3600;48.568;7.870;2023-04-12T11:46:49;4.88;;;2.20;;
7116;SDS011;3600;48.568;7.870;2023-04-12T11:49:17;2.83;;;1.67;;
7116;SDS011;3600;48.568;7.870;2023-04-12T11:51:45;4.45;;;2.42;;
7116;SDS011;3600;48.568;7.870;2023-04-12T11:54:14;3.55;;;1.98;;
7116;SDS011;3600;48.568;7.870;2023-04-12T11:56:41;4.32;;;2.03;;
7116;SDS011;3600;48.568;7.870;2023-04-12T11:59:08;4.38;;;2.17;;
7116;SDS011;3600;48.568;7.870;2023-04-12T12:01:35;3.40;;;1.90;;
7116;SDS011;3600;48.568;7.870;2023-04-12T12:04:03;3.60;;;2.15;;
7116;SDS011;3600;48.568;7.870;2023-04-12T12:06:31;2.17;;;1.95;;
7116;SDS011;3600;48.568;7.870;2023-04-12T12:08:58;4.10;;;2.30;;
7116;SDS011;3600;48.568;7.870;2023-04-12T12:11:26;2.42;;;1.98;;
7116;SDS011;3600;48.568;7.870;2023-04-12T12:13:53;3.38;;;1.60;;
7116;SDS011;3600;48.568;7.870;2023-04-12T12:16:24;2.72;;;1.92;;
7116;SDS011;3600;48.568;7.870;2023-04-12T12:18:54;2.67;;;2.15;;
7116;SDS011;3600;48.568;7.870;2023-04-12T12:21:21;2.55;;;1.77;;
7116;SDS011;3600;48.568;7.870;2023-04-12T12:23:48;4.53;;;1.98;;
7116;SDS011;3600;48.568;7.870;2023-04-12T12:26:23;2.38;;;2.15;;
7116;SDS011;3600;48.568;7.870;2023-04-12T12:28:52;2.78;;;2.17;;
7116;SDS011;3600;48.568;7.870;2023-04-12T12:31:23;2.10;;;1.80;;
7116;SDS011;3600;48.568;7.870;2023-04-12T12:33:55;2.20;;;1.60;;
7116;SDS011;3600;48.568;7.870;2023-04-12T12:36:30;3.20;;;1.95;;
7116;SDS011;3600;48.568;7.870;2023-04-12T12:39:16;2.17;;;1.48;;
7116;SDS011;3600;48.568;7.870;2023-04-12T12:41:43;2.50;;;1.77;;
7116;SDS011;3600;48.568;7.870;2023-04-12T12:44:19;1.67;;;1.58;;
7116;SDS011;3600;48.568;7.870;2023-04-12T12:46:46;4.13;;;1.70;;
7116;SDS011;3600;48.568;7.870;2023-04-12T12:49:25;2.05;;;1.92;;
7116;SDS011;3600;48.568;7.870;2023-04-12T12:51:52;4.65;;;3.30;;
7116;SDS011;3600;48.568;7.870;2023-04-12T12:54:19;2.65;;;1.60;;
7116;SDS011;3600;48.568;7.870;2023-04-12T12:57:06;3.55;;;1.55;;
7116;SDS011;3600;48.568;7.870;2023-04-12T12:59:32;3.78;;;2.30;;
7116;SDS011;3600;48.568;7.870;2023-04-12T13:01:59;3.47;;;2.15;;
7116;SDS011;3600;48.568;7.870;2023-04-12T13:04:27;2.25;;;1.83;;
7116;SDS011;3600;48.568;7.870;2023-04-12T13:06:54;4.90;;;2.10;;
7116;SDS011;3600;48.568;7.870;2023-04-12T13:09:20;4.43;;;1.80;;
7116;SDS011;3600;48.568;7.870;2023-04-12T13:11:47;2.33;;;1.92;;
7116;SDS011;3600;48.568;7.870;2023-04-12T13:14:14;2.65;;;1.90;;
7116;SDS011;3600;48.568;7.870;2023-04-12T13:16:41;1.70;;;1.60;;
7116;SDS011;3600;48.568;7.870;2023-04-12T13:19:08;4.30;;;2.15;;
7116;SDS011;3600;48.568;7.870;2023-04-12T13:21:35;2.65;;;1.83;;
7116;SDS011;3600;48.568;7.870;2023-04-12T13:24:01;2.30;;;1.75;;
7116;SDS011;3600;48.568;7.870;2023-04-12T13:26:28;2.75;;;1.40;;
7116;SDS011;3600;48.568;7.870;2023-04-12T13:28:56;2.53;;;1.98;;
7116;SDS011;3600;48.568;7.870;2023-04-12T13:31:23;2.78;;;1.67;;
7116;SDS011;3600;48.568;7.870;2023-04-12T13:33:51;1.70;;;1.60;;
7116;SDS011;3600;48.568;7.870;2023-04-12T13:36:17;3.30;;;1.48;;
7116;SDS011;3600;48.568;7.870;2023-04-12T13:38:44;2.92;;;1.77;;
7116;SDS011;3600;48.568;7.870;2023-04-12T13:41:11;1.88;;;1.58;;
7116;SDS011;3600;48.568;7.870;2023-04-12T13:43:37;1.52;;;1.42;;
7116;SDS011;3600;48.568;7.870;2023-04-12T13:46:05;1.67;;;1.45;;
7116;SDS011;3600;48.568;7.870;2023-04-12T13:48:32;3.08;;;1.85;;
7116;SDS011;3600;48.568;7.870;2023-04-12T13:50:59;2.83;;;2.25;;
7116;SDS011;3600;48.568;7.870;2023-04-12T13:53:26;6.32;;;2.20;;
7116;SDS011;3600;48.568;7.870;2023-04-12T13:55:53;1.60;;;1.35;;
7116;SDS011;3600;48.568;7.870;2023-04-12T13:58:20;5.10;;;1.65;;
7116;SDS011;3600;48.568;7.870;2023-04-12T14:00:46;2.08;;;1.20;;
7116;SDS011;3600;48.568;7.870;2023-04-12T14:03:13;1.00;;;0.85;;
7116;SDS011;3600;48.568;7.870;2023-04-12T14:05:40;1.20;;;0.68;;
7116;SDS011;3600;48.568;7.870;2023-04-12T14:08:08;0.90;;;0.77;;
7116;SDS011;3600;48.568;7.870;2023-04-12T14:10:44;0.45;;;0.45;;
7116;SDS011;3600;48.568;7.870;2023-04-12T14:13:12;0.45;;;0.45;;
7116;SDS011;3600;48.568;7.870;2023-04-12T14:15:40;0.30;;;0.30;;
7116;SDS011;3600;48.568;7.870;2023-04-12T14:18:07;0.38;;;0.30;;
7116;SDS011;3600;48.568;7.870;2023-04-12T14:20:34;1.15;;;0.47;;
7116;SDS011;3600;48.568;7.870;2023-04-12T14:23:01;0.20;;;0.20;;
7116;SDS011;3600;48.568;7.870;2023-04-12T14:25:29;0.30;;;0.30;;
7116;SDS011;3600;48.568;7.870;2023-04-12T14:27:56;0.30;;;0.30;;
7116;SDS011;3600;48.568;7.870;2023-04-12T14:30:23;1.20;;;0.30;;
7116;SDS011;3600;48.568;7.870;2023-04-12T14:32:51;0.30;;;0.30;;
7116;SDS011;3600;48.568;7.870;2023-04-12T14:35:21;0.80;;;0.55;;
7116;SDS011;3600;48.568;7.870;2023-04-12T14:37:48;0.43;;;0.43;;
7116;SDS011;3600;48.568;7.870;2023-04-12T14:40:14;0.30;;;0.30;;
7116;SDS011;3600;48.568;7.870;2023-04-12T14:42:43;1.13;;;0.47;;
7116;SDS011;3600;48.568;7.870;2023-04-12T14:45:10;0.55;;;0.47;;
7116;SDS011;3600;48.568;7.870;2023-04-12T14:47:37;0.75;;;0.50;;
7116;SDS011;3600;48.568;7.870;2023-04-12T14:50:04;1.10;;;0.70;;
7116;SDS011;3600;48.568;7.870;2023-04-12T14:52:31;1.77;;;0.65;;
7116;SDS011;3600;48.568;7.870;2023-04-12T14:54:58;1.42;;;1.33;;
7116;SDS011;3600;48.568;7.870;2023-04-12T14:57:26;3.72;;;1.80;;
7116;SDS011;3600;48.568;7.870;2023-04-12T14:59:53;2.63;;;1.10;;
7116;SDS011;3600;48.568;7.870;2023-04-12T15:02:19;1.02;;;0.82;;
7116;SDS011;3600;48.568;7.870;2023-04-12T15:04:50;0.98;;;0.80;;
7116;SDS011;3600;48.568;7.870;2023-04-12T15:07:16;1.35;;;1.25;;
7116;SDS011;3600;48.568;7.870;2023-04-12T15:09:44;1.27;;;0.80;;
7116;SDS011;3600;48.568;7.870;2023-04-12T15:15:08;0.60;;;0.40;;
7116;SDS011;3600;48.568;7.870;2023-04-12T15:17:36;1.40;;;0.63;;
7116;SDS011;3600;48.568;7.870;2023-04-12T15:20:03;1.08;;;1.00;;
7116;SDS011;3600;48.568;7.870;2023-04-12T15:22:37;0.50;;;0.50;;
7116;SDS011;3600;48.568;7.870;2023-04-12T15:25:05;2.17;;;0.35;;
7116;SDS011;3600;48.568;7.870;2023-04-12T15:27:32;2.05;;;0.60;;
7116;SDS011;3600;48.568;7.870;2023-04-12T15:30:00;0.57;;;0.50;;
7116;SDS011;3600;48.568;7.870;2023-04-12T15:32:27;0.60;;;0.60;;
7116;SDS011;3600;48.568;7.870;2023-04-12T15:34:54;0.50;;;0.50;;
7116;SDS011;3600;48.568;7.870;2023-04-12T15:37:21;0.68;;;0.60;;
7116;SDS011;3600;48.568;7.870;2023-04-12T15:39:48;0.63;;;0.40;;
7116;SDS011;3600;48.568;7.870;2023-04-12T15:42:15;1.05;;;0.50;;
7116;SDS011;3600;48.568;7.870;2023-04-12T15:44:42;1.17;;;1.17;;
7116;SDS011;3600;48.568;7.870;2023-04-12T15:47:10;0.68;;;0.68;;
7116;SDS011;3600;48.568;7.870;2023-04-12T15:49:38;0.77;;;0.70;;
7116;SDS011;3600;48.568;7.870;2023-04-12T15:52:05;1.08;;;0.80;;
7116;SDS011;3600;48.568;7.870;2023-04-12T15:54:31;1.05;;;0.90;;
7116;SDS011;3600;48.568;7.870;2023-04-12T15:56:58;1.67;;;0.77;;
7116;SDS011;3600;48.568;7.870;2023-04-12T15:59:33;1.65;;;1.33;;
7116;SDS011;3600;48.568;7.870;2023-04-12T16:02:02;1.75;;;0.82;;
7116;SDS011;3600;48.568;7.870;2023-04-12T16:04:31;0.88;;;0.88;;